Time;durP1;ratioP1;P1;durP2;ratioP2;P2;SDS_P1;SDS_P2;PMS_P1;PMS_P2;Temp;Humidity;BMP_temperature;BMP_pressure;BME280_temperature;BME280_humidity;BME280_pressure;Samples;Min_cycle;Max_cycle;Signal;HPM_P1;HPM_P2
2021/05/15 00:00:13;;;;;;;21.50;14.35;;;;;;;15.31;nan;100143.47;5029672;28;20068;-77
2021/05/15 00:02:38;;;;;;;26.50;15.30;;;;;;;14.85;nan;100140.72;5029395;28;20398;-77
2021/05/15 00:05:08;;;;;;;21.00;14.85;;;;;;;14.89;nan;100134.75;5030224;28;20136;-77
2021/05/15 00:07:34;;;;;;;21.08;14.15;;;;;;;15.21;nan;100142.84;5028945;28;20068;-77
2021/05/15 00:10:00;;;;;;;20.30;14.40;;;;;;;14.94;nan;100139.66;5028864;28;20029;-77
2021/05/15 00:12:25;;;;;;;27.38;14.55;;;;;;;14.95;nan;100138.63;5028678;28;20037;-77
2021/05/15 00:14:53;;;;;;;24.95;14.13;;;;;;;14.51;nan;100135.59;5028946;28;20037;-77
2021/05/15 00:17:18;;;;;;;25.30;15.23;;;;;;;15.02;nan;100134.16;5028950;28;20084;-77
2021/05/15 00:19:43;;;;;;;23.85;14.45;;;;;;;15.11;nan;100138.50;5025995;28;20531;-77
2021/05/15 00:22:09;;;;;;;25.48;15.07;;;;;;;14.93;nan;100132.53;5044170;28;20474;-77
2021/05/15 00:24:34;;;;;;;29.00;15.55;;;;;;;14.86;nan;100128.88;5028710;28;20029;-77
2021/05/15 00:27:00;;;;;;;30.45;15.68;;;;;;;14.94;nan;100126.13;5029164;28;20034;-77
2021/05/15 00:29:25;;;;;;;25.42;15.13;;;;;;;15.02;nan;100131.47;5028822;28;20026;-76
2021/05/15 00:31:50;;;;;;;23.38;14.50;;;;;;;15.42;nan;100134.03;5028881;28;20065;-77
2021/05/15 00:34:16;;;;;;;22.13;14.10;;;;;;;14.85;nan;100121.78;5028881;28;20040;-77
2021/05/15 00:36:41;;;;;;;24.20;15.05;;;;;;;14.78;nan;100124.31;5030543;28;20095;-76
2021/05/15 00:39:08;;;;;;;22.67;14.05;;;;;;;14.85;nan;100121.78;5048932;28;20068;-77
2021/05/15 00:41:34;;;;;;;21.15;14.55;;;;;;;15.02;nan;100131.47;5052633;28;20051;-76
2021/05/15 00:44:15;;;;;;;17.92;12.77;;;;;;;14.64;nan;100123.25;5040970;28;20079;-78
2021/05/15 00:46:42;;;;;;;;;;;;;;;14.87;nan;100131.38;5033238;28;20075;-76
2021/05/15 00:49:08;;;;;;;26.17;14.52;;;;;;;15.15;nan;100126.31;5031460;28;19935;-76
2021/05/15 00:51:34;;;;;;;33.72;15.93;;;;;;;15.33;nan;100130.56;5032584;28;20071;-76
2021/05/15 00:54:01;;;;;;;20.60;14.45;;;;;;;15.72;nan;100119.56;5032733;28;20095;-76
2021/05/15 00:56:28;;;;;;;28.98;15.52;;;;;;;15.24;nan;100127.06;5030555;28;20033;-76
2021/05/15 00:58:55;;;;;;;36.50;15.63;;;;;;;15.06;nan;100126.53;5047597;28;20029;-77
2021/05/15 01:01:21;;;;;;;25.20;14.20;;;;;;;14.87;nan;100127.84;5032606;28;20567;-76
2021/05/15 01:03:47;;;;;;;23.20;14.25;;;;;;;15.06;nan;100124.69;5031843;28;20056;-77
2021/05/15 01:06:13;;;;;;;26.10;14.73;;;;;;;14.81;nan;100123.13;5031104;28;20478;-77
2021/05/15 01:08:44;;;;;;;25.13;14.00;;;;;;;14.82;nan;100125.69;5032770;28;20142;-77
2021/05/15 01:11:10;;;;;;;35.03;16.70;;;;;;;14.94;nan;100121.53;5032134;28;20121;-76
2021/05/15 01:13:35;;;;;;;26.15;15.07;;;;;;;15.03;nan;100135.88;5033823;28;20640;-76
2021/05/15 01:16:01;;;;;;;26.90;14.35;;;;;;;15.05;nan;100127.56;5031896;28;20060;-76
2021/05/15 01:18:27;;;;;;;23.75;14.88;;;;;;;14.63;nan;100126.97;5032179;28;20052;-76
2021/05/15 01:21:00;;;;;;;22.65;14.63;;;;;;;14.58;nan;100123.94;5045730;28;20033;-76
2021/05/15 01:23:26;;;;;;;21.67;12.98;;;;;;;14.96;nan;100121.34;5032038;28;20036;-77
2021/05/15 01:25:51;;;;;;;27.67;13.13;;;;;;;14.57;nan;100124.97;5032742;28;20026;-77
2021/05/15 01:28:17;;;;;;;26.85;13.57;;;;;;;14.58;nan;100123.94;5032118;28;20481;-77
2021/05/15 01:30:42;;;;;;;28.77;15.63;;;;;;;15.02;nan;100127.91;5032116;28;20049;-77
2021/05/15 01:33:08;;;;;;;19.52;13.40;;;;;;;14.41;nan;100115.00;5031700;28;20037;-77
2021/05/15 01:35:34;;;;;;;29.27;15.18;;;;;;;14.83;nan;100121.94;5042727;28;20044;-76
2021/05/15 01:37:59;;;;;;;25.13;14.88;;;;;;;14.84;nan;100120.06;5031825;28;20029;-77
2021/05/15 01:40:24;;;;;;;34.47;16.55;;;;;;;15.04;nan;100115.03;5032003;28;20033;-77
2021/05/15 01:42:50;;;;;;;28.75;16.17;;;;;;;14.92;nan;100117.31;5031653;28;20499;-77
2021/05/15 01:45:15;;;;;;;26.67;14.85;;;;;;;15.15;nan;100126.31;5031875;28;20029;-77
2021/05/15 01:47:41;;;;;;;25.85;13.52;;;;;;;15.20;nan;100111.38;5046739;28;20465;-77
2021/05/15 01:50:08;;;;;;;28.23;15.90;;;;;;;15.07;nan;100110.09;5045408;28;20507;-77
2021/05/15 01:52:34;;;;;;;19.83;14.07;;;;;;;14.69;nan;100112.72;5031690;28;20033;-77
2021/05/15 01:55:00;;;;;;;27.08;14.60;;;;;;;14.39;nan;100108.13;5031409;28;20034;-78
2021/05/15 01:57:25;;;;;;;29.02;16.05;;;;;;;14.69;nan;100112.72;5029882;28;20040;-77
2021/05/15 01:59:50;;;;;;;24.85;15.77;;;;;;;14.55;nan;100109.94;5031437;28;20501;-77
2021/05/15 02:02:16;;;;;;;31.65;16.67;;;;;;;14.91;nan;100112.94;5013401;28;20029;-76
2021/05/15 02:04:41;;;;;;;30.27;15.88;;;;;;;14.65;nan;100108.69;5031233;28;20038;-77
2021/05/15 02:07:07;;;;;;;33.42;15.73;;;;;;;15.04;nan;100110.47;5030576;28;20042;-77
2021/05/15 02:09:32;;;;;;;26.58;14.63;;;;;;;14.82;nan;100105.91;5031364;28;20037;-77
2021/05/15 02:11:58;;;;;;;24.55;14.38;;;;;;;14.75;nan;100105.75;5031081;28;20084;-77
2021/05/15 02:14:23;;;;;;;25.00;14.82;;;;;;;14.85;nan;100108.25;5030946;28;20037;-77
2021/05/15 02:16:48;;;;;;;33.92;15.73;;;;;;;14.67;nan;100098.53;5031162;28;20037;-77
2021/05/15 02:19:14;;;;;;;30.95;15.90;;;;;;;14.70;nan;100098.16;5031175;28;20021;-77
2021/05/15 02:21:39;;;;;;;28.42;13.95;;;;;;;14.74;nan;100095.94;5030936;28;20068;-77
2021/05/15 02:24:05;;;;;;;28.73;15.60;;;;;;;14.64;nan;100092.63;5028163;28;20096;-77
2021/05/15 02:26:31;;;;;;;25.08;14.50;;;;;;;14.89;nan;100094.16;5031043;28;20029;-77
2021/05/15 02:28:56;;;;;;;25.10;13.18;;;;;;;14.70;nan;100095.47;5039284;28;20553;-77
2021/05/15 02:31:21;;;;;;;29.23;15.57;;;;;;;15.03;nan;100092.53;5029343;28;20404;-77
2021/05/15 02:33:47;;;;;;;31.85;13.07;;;;;;;14.29;nan;100096.66;5029731;28;20030;-77
2021/05/15 02:36:12;;;;;;;31.40;13.68;;;;;;;14.91;nan;100096.69;5029561;28;20041;-77
2021/05/15 02:38:37;;;;;;;22.23;13.20;;;;;;;14.68;nan;100092.09;5030755;28;20060;-77
2021/05/15 02:41:03;;;;;;;25.55;14.00;;;;;;;14.52;nan;100085.94;5030310;28;20025;-76
2021/05/15 02:43:28;;;;;;;23.55;11.90;;;;;;;14.64;nan;100093.47;5030278;28;20522;-77
2021/05/15 02:45:53;;;;;;;22.38;11.55;;;;;;;14.76;nan;100084.94;5030700;28;20178;-77
2021/05/15 02:48:19;;;;;;;27.45;12.30;;;;;;;14.80;nan;100086.28;5030405;28;20045;-77
2021/05/15 02:50:50;;;;;;;17.63;10.55;;;;;;;14.78;nan;100083.72;5030962;28;20112;-77
2021/05/15 02:53:17;;;;;;;19.90;11.03;;;;;;;15.20;nan;100089.69;5031030;28;20055;-77
2021/05/15 02:55:42;;;;;;;18.13;10.63;;;;;;;15.36;nan;100087.69;5028677;28;20025;-77
2021/05/15 02:58:08;;;;;;;16.15;9.27;;;;;;;15.21;nan;100083.25;5045000;28;20029;-77
2021/05/15 03:00:34;;;;;;;18.88;9.80;;;;;;;15.18;nan;100087.16;5030187;28;20048;-77
2021/05/15 03:03:00;;;;;;;14.18;8.75;;;;;;;14.66;nan;100086.03;5029927;28;20033;-76
2021/05/15 03:05:27;;;;;;;14.15;8.40;;;;;;;14.70;nan;100084.63;5028779;28;20481;-76
2021/05/15 03:07:53;;;;;;;12.90;7.88;;;;;;;15.23;nan;100084.75;5029754;28;20056;-77
2021/05/15 03:10:26;;;;;;;9.80;7.70;;;;;;;15.07;nan;100085.72;5030313;28;20033;-77
2021/05/15 03:12:54;;;;;;;14.40;8.48;;;;;;;14.41;nan;100079.00;5029956;28;20103;-76
2021/05/15 03:15:20;;;;;;;14.32;8.25;;;;;;;14.56;nan;100074.56;5029761;28;20045;-77
2021/05/15 03:17:46;;;;;;;17.80;7.35;;;;;;;14.32;nan;100075.50;5020892;28;20045;-77
2021/05/15 03:20:14;;;;;;;10.93;7.88;;;;;;;14.70;nan;100079.22;5029357;28;20481;-76
2021/05/15 03:22:40;;;;;;;13.32;7.93;;;;;;;14.93;nan;100076.50;5028384;28;20132;-76
2021/05/15 03:25:06;;;;;;;15.55;8.13;;;;;;;14.87;nan;100081.81;5029811;28;20400;-77
2021/05/15 03:27:32;;;;;;;9.30;6.82;;;;;;;14.85;nan;100076.59;5028298;28;20033;-76
2021/05/15 03:29:58;;;;;;;10.93;7.13;;;;;;;14.87;nan;100076.41;5013706;28;20055;-77
2021/05/15 03:32:24;;;;;;;13.73;7.63;;;;;;;15.19;nan;100069.91;5029665;28;20026;-76
2021/05/15 03:34:49;;;;;;;12.43;8.10;;;;;;;15.04;nan;100079.84;5028039;28;20029;-77
2021/05/15 03:37:14;;;;;;;12.88;7.97;;;;;;;14.87;nan;100068.28;5011581;28;20068;-76
2021/05/15 03:39:40;;;;;;;10.80;7.57;;;;;;;14.64;nan;100070.97;5029438;28;20033;-76
2021/05/15 03:42:05;;;;;;;10.75;7.18;;;;;;;15.02;nan;100068.34;5044447;28;20044;-76
2021/05/15 03:44:30;;;;;;;17.73;7.65;;;;;;;14.66;nan;100072.50;5029482;28;20033;-76
2021/05/15 03:46:56;;;;;;;12.45;7.75;;;;;;;14.88;nan;100072.69;5030045;28;20547;-76
2021/05/15 03:49:21;;;;;;;9.13;7.72;;;;;;;14.69;nan;100069.44;5049167;28;20091;-76
2021/05/15 03:51:46;;;;;;;12.85;8.13;;;;;;;14.98;nan;100073.28;5047467;28;20547;-76
2021/05/15 03:54:12;;;;;;;10.52;6.72;;;;;;;15.09;nan;100061.16;5049679;28;20631;-77
2021/05/15 03:56:37;;;;;;;14.65;7.93;;;;;;;15.28;nan;100062.56;5045441;28;20045;-77
2021/05/15 03:59:03;;;;;;;12.30;7.70;;;;;;;15.41;nan;100070.88;5029533;28;20425;-77
2021/05/15 04:01:29;;;;;;;10.68;7.60;;;;;;;15.48;nan;100076.41;5029290;28;20037;-77
2021/05/15 04:03:54;;;;;;;11.95;7.55;;;;;;;15.51;nan;100076.03;5011277;28;20029;-77
2021/05/15 04:06:19;;;;;;;14.32;8.15;;;;;;;14.82;nan;100073.41;5028730;28;20120;-77
2021/05/15 04:08:45;;;;;;;11.57;7.15;;;;;;;15.28;nan;100074.22;5010451;28;20030;-76
2021/05/15 04:11:11;;;;;;;12.48;7.57;;;;;;;15.20;nan;100073.44;5028626;28;20025;-77
2021/05/15 04:16:26;;;;;;;8.90;6.90;;;;;;;15.37;nan;100073.13;5029320;28;20123;-76
2021/05/15 04:18:52;;;;;;;15.75;8.52;;;;;;;14.92;nan;100074.00;5024386;28;20060;-76
2021/05/15 04:21:17;;;;;;;13.90;8.00;;;;;;;15.00;nan;100073.94;5009160;28;20406;-76
2021/05/15 04:23:43;;;;;;;15.15;8.35;;;;;;;15.48;nan;100079.97;4998288;28;20037;-77
2021/05/15 04:26:11;;;;;;;11.02;8.13;;;;;;;15.09;nan;100070.16;5028827;28;20107;-77
2021/05/15 04:28:36;;;;;;;10.02;7.53;;;;;;;15.15;nan;100071.28;5040680;28;20033;-77
2021/05/15 04:31:02;;;;;;;12.93;8.32;;;;;;;15.03;nan;100076.31;5028776;28;20044;-77
2021/05/15 04:33:27;;;;;;;11.90;7.63;;;;;;;14.96;nan;100063.66;5029011;28;20044;-77
2021/05/15 04:35:53;;;;;;;11.57;6.68;;;;;;;15.17;nan;100061.09;5028884;28;20033;-76
2021/05/15 04:38:19;;;;;;;13.20;6.85;;;;;;;15.31;nan;100071.16;5030922;28;20482;-77
2021/05/15 04:40:44;;;;;;;7.07;6.18;;;;;;;14.98;nan;100067.88;5028829;28;20029;-77
2021/05/15 04:43:10;;;;;;;9.77;6.43;;;;;;;15.00;nan;100079.38;5028162;28;20029;-77
2021/05/15 04:45:37;;;;;;;7.65;6.25;;;;;;;14.54;nan;100067.63;5028433;28;20033;-77
2021/05/15 04:48:03;;;;;;;14.48;6.03;;;;;;;15.20;nan;100070.75;5028615;28;20028;-77
2021/05/15 04:50:28;;;;;;;11.07;6.45;;;;;;;15.42;nan;100074.44;5028785;28;20029;-77
2021/05/15 04:52:53;;;;;;;10.10;5.78;;;;;;;14.83;nan;100077.78;5028390;28;20037;-76
2021/05/15 04:55:19;;;;;;;10.52;6.22;;;;;;;15.37;nan;100081.25;5010511;28;20033;-76
2021/05/15 04:57:45;;;;;;;8.18;5.07;;;;;;;15.20;nan;100084.28;5026553;28;20041;-76
2021/05/15 05:00:11;;;;;;;12.10;6.28;;;;;;;14.99;nan;100071.41;5028717;28;20455;-76
2021/05/15 05:02:37;;;;;;;7.28;5.60;;;;;;;15.19;nan;100082.59;5028248;28;20064;-77
2021/05/15 05:05:02;;;;;;;9.43;4.95;;;;;;;15.24;nan;100082.88;5028363;28;20045;-77
2021/05/15 05:07:28;;;;;;;8.20;6.05;;;;;;;14.69;nan;100091.09;5028249;28;20460;-77
2021/05/15 05:09:53;;;;;;;9.27;5.88;;;;;;;14.85;nan;100083.88;5010187;28;20087;-77
2021/05/15 05:12:18;;;;;;;10.25;5.50;;;;;;;14.91;nan;100085.88;5028508;28;20034;-77
2021/05/15 05:14:44;;;;;;;12.00;6.60;;;;;;;14.66;nan;100090.56;5028215;28;20033;-76
2021/05/15 05:17:10;;;;;;;11.38;6.82;;;;;;;15.30;nan;100079.44;5027787;28;20108;-76
2021/05/15 05:19:35;;;;;;;14.85;6.78;;;;;;;15.47;nan;100083.69;5028267;28;20421;-77
2021/05/15 05:22:03;;;;;;;11.27;6.95;;;;;;;15.42;nan;100077.16;5028157;28;20508;-76
2021/05/15 05:24:30;;;;;;;9.80;6.80;;;;;;;14.96;nan;100078.03;5028742;28;20037;-77
2021/05/15 05:26:57;;;;;;;13.15;7.13;;;;;;;15.28;nan;100082.34;5032052;28;20029;-77
2021/05/15 05:29:22;;;;;;;9.52;6.55;;;;;;;15.39;nan;100089.19;5030473;28;20056;-77
2021/05/15 05:31:50;;;;;;;7.78;6.32;;;;;;;14.85;nan;100082.00;5031246;28;20069;-77
2021/05/15 05:34:16;;;;;;;9.07;5.93;;;;;;;14.76;nan;100076.84;5031422;28;20063;-77
2021/05/15 05:36:41;;;;;;;8.00;4.68;;;;;;;15.03;nan;100086.25;5024661;28;20069;-76
2021/05/15 05:39:12;;;;;;;7.55;4.85;;;;;;;14.77;nan;100086.63;5013775;28;20025;-77
2021/05/15 05:41:37;;;;;;;9.50;4.82;;;;;;;14.88;nan;100091.63;5013651;28;20125;-77
2021/05/15 05:44:04;;;;;;;6.68;4.82;;;;;;;14.90;nan;100089.56;5031855;28;20037;-77
2021/05/15 05:46:30;;;;;;;7.40;5.10;;;;;;;14.48;nan;100088.13;5016159;28;20060;-77
2021/05/15 05:48:55;;;;;;;9.57;5.47;;;;;;;15.04;nan;100099.63;5034198;28;20485;-77
2021/05/15 05:51:20;;;;;;;8.30;5.35;;;;;;;15.13;nan;100095.84;5013875;28;20039;-77
2021/05/15 05:53:46;;;;;;;5.82;4.75;;;;;;;15.57;nan;100094.28;5014002;28;20029;-77
2021/05/15 05:56:11;;;;;;;9.38;6.00;;;;;;;15.60;nan;100099.31;5008009;28;20493;-77
2021/05/15 05:58:36;;;;;;;6.68;5.05;;;;;;;15.84;nan;100095.56;5031203;28;20037;-77
2021/05/15 06:01:02;;;;;;;8.70;5.55;;;;;;;15.62;nan;100098.13;5031380;28;20025;-76
2021/05/15 06:03:27;;;;;;;8.90;5.18;;;;;;;14.79;nan;100098.13;5033449;28;20049;-77
2021/05/15 06:05:53;;;;;;;7.55;5.03;;;;;;;14.36;nan;100094.94;5031151;28;20029;-77
2021/05/15 06:08:18;;;;;;;11.75;6.80;;;;;;;14.95;nan;100095.31;5031806;28;20083;-77
2021/05/15 06:10:46;;;;;;;8.45;5.13;;;;;;;15.00;nan;100103.75;5013203;28;20125;-77
2021/05/15 06:13:11;;;;;;;9.82;5.97;;;;;;;15.17;nan;100099.88;5012920;28;20041;-77
2021/05/15 06:15:37;;;;;;;9.25;5.43;;;;;;;15.07;nan;100093.03;5029291;28;20037;-77
2021/05/15 06:18:03;;;;;;;9.10;5.38;;;;;;;14.84;nan;100093.00;5012765;28;20028;-77
2021/05/15 06:20:29;;;;;;;8.77;5.45;;;;;;;14.67;nan;100098.53;5029351;28;20148;-77
2021/05/15 06:22:55;;;;;;;9.45;5.43;;;;;;;14.80;nan;100099.81;5029215;28;20112;-77
2021/05/15 06:25:21;;;;;;;10.07;6.82;;;;;;;15.00;nan;100092.03;5031169;28;20030;-77
2021/05/15 06:27:46;;;;;;;12.35;6.82;;;;;;;15.12;nan;100102.28;5031018;28;20377;-77
2021/05/15 06:30:12;;;;;;;11.65;7.55;;;;;;;15.50;nan;100087.91;5030868;28;20527;-76
2021/05/15 06:32:38;;;;;;;13.70;6.25;;;;;;;15.30;nan;100093.00;5012620;28;20036;-77
2021/05/15 06:35:03;;;;;;;9.77;6.57;;;;;;;15.20;nan;100112.22;5031036;28;20025;-76
2021/05/15 06:37:29;;;;;;;9.35;6.40;;;;;;;14.24;nan;100114.25;5011810;28;20037;-76
2021/05/15 06:39:54;;;;;;;12.15;6.47;;;;;;;14.94;nan;100107.16;5030726;28;20034;-77
2021/05/15 06:42:19;;;;;;;9.98;6.43;;;;;;;14.89;nan;100118.53;5012538;28;20108;-76
2021/05/15 06:44:45;;;;;;;9.23;6.10;;;;;;;15.04;nan;100115.03;5012745;28;20028;-77
2021/05/15 06:47:12;;;;;;;10.68;6.20;;;;;;;15.06;nan;100107.56;5014126;28;20037;-77
2021/05/15 06:49:38;;;;;;;10.63;6.25;;;;;;;14.87;nan;100109.72;5030117;28;20033;-77
2021/05/15 06:52:04;;;;;;;11.38;7.18;;;;;;;14.62;nan;100113.59;5030355;28;20029;-77
2021/05/15 06:54:29;;;;;;;10.18;6.30;;;;;;;15.12;nan;100112.25;5030531;28;20053;-77
2021/05/15 06:56:54;;;;;;;8.75;6.45;;;;;;;14.77;nan;100111.00;5023652;28;20030;-76
2021/05/15 06:59:20;;;;;;;13.95;7.25;;;;;;;15.02;nan;100103.53;5030037;28;20052;-76
2021/05/15 07:01:45;;;;;;;12.77;7.10;;;;;;;15.12;nan;100102.28;5030228;28;20430;-76
2021/05/15 07:04:11;;;;;;;11.77;7.22;;;;;;;14.96;nan;100107.81;5042304;28;20026;-76
2021/05/15 07:06:36;;;;;;;13.23;8.07;;;;;;;14.64;nan;100101.59;5012113;28;20366;-77
2021/05/15 07:09:03;;;;;;;14.20;7.70;;;;;;;14.79;nan;100111.66;5012129;28;20049;-77
2021/05/15 07:11:28;;;;;;;17.30;9.15;;;;;;;15.03;nan;100107.94;5030074;28;20031;-77
2021/05/15 07:13:54;;;;;;;11.55;8.32;;;;;;;14.79;nan;100109.78;5033209;28;20036;-76
2021/05/15 07:16:19;;;;;;;17.77;7.68;;;;;;;15.34;nan;100108.72;5049930;28;20033;-76
2021/05/15 07:18:44;;;;;;;10.63;7.32;;;;;;;15.54;nan;100100.91;5050331;28;20024;-76
2021/05/15 07:21:10;;;;;;;10.38;7.57;;;;;;;15.10;nan;100109.75;5049804;28;20535;-75
2021/05/15 07:23:35;;;;;;;13.50;6.75;;;;;;;15.55;nan;100097.19;5033495;28;20370;-77
2021/05/15 07:26:00;;;;;;;8.77;6.15;;;;;;;15.04;nan;100113.19;5028296;28;20091;-76
2021/05/15 07:28:26;;;;;;;10.60;6.22;;;;;;;15.44;nan;100105.75;5029645;28;20440;-76
2021/05/15 07:30:51;;;;;;;9.32;6.38;;;;;;;15.35;nan;100107.69;5011840;28;20029;-77
2021/05/15 07:33:17;;;;;;;7.93;6.43;;;;;;;15.47;nan;100113.50;5029333;28;20064;-77
2021/05/15 07:35:42;;;;;;;7.93;6.85;;;;;;;15.46;nan;100108.25;5030009;28;20358;-76
2021/05/15 07:38:07;;;;;;;11.15;7.13;;;;;;;15.53;nan;100112.78;5044533;28;20431;-76
2021/05/15 07:40:33;;;;;;;12.48;7.18;;;;;;;15.69;nan;100113.69;5028796;28;20067;-77
2021/05/15 07:42:58;;;;;;;10.80;6.93;;;;;;;15.26;nan;100107.94;5029038;28;20128;-77
2021/05/15 07:45:24;;;;;;;10.95;7.00;;;;;;;15.83;nan;100111.00;5011467;28;20029;-77
2021/05/15 07:47:50;;;;;;;11.57;8.15;;;;;;;15.83;nan;100105.56;5010938;28;20437;-76
2021/05/15 07:50:15;;;;;;;12.98;7.22;;;;;;;15.80;nan;100111.38;5029386;28;20033;-76
2021/05/15 07:52:41;;;;;;;12.23;7.45;;;;;;;15.70;nan;100105.38;5028950;28;20052;-77
2021/05/15 07:55:08;;;;;;;9.77;7.53;;;;;;;15.63;nan;100096.25;5029409;28;20052;-77
2021/05/15 07:57:33;;;;;;;11.30;7.88;;;;;;;15.93;nan;100097.16;5028762;28;20041;-77
2021/05/15 07:59:59;;;;;;;13.13;8.55;;;;;;;16.23;nan;100102.59;5027869;28;20382;-77
2021/05/15 08:02:27;;;;;;;12.90;9.15;;;;;;;16.25;nan;100108.66;5029654;28;20036;-77
2021/05/15 08:04:54;;;;;;;11.40;8.35;;;;;;;15.82;nan;100108.47;5029148;28;20025;-77
2021/05/15 08:07:20;;;;;;;17.67;8.15;;;;;;;16.16;nan;100112.50;5027739;28;20025;-76
2021/05/15 08:09:45;;;;;;;15.45;8.98;;;;;;;16.20;nan;100103.81;5040292;28;20509;-77
2021/05/15 08:12:11;;;;;;;10.10;7.45;;;;;;;15.54;nan;100106.31;5028920;28;20057;-77
2021/05/15 08:14:36;;;;;;;15.85;8.43;;;;;;;15.54;nan;100102.78;5025454;28;20072;-77
2021/05/15 08:17:01;;;;;;;12.48;6.68;;;;;;;16.15;nan;100099.97;5028609;28;20033;-77
2021/05/15 08:19:27;;;;;;;9.60;6.40;;;;;;;15.52;nan;100100.25;5013247;28;20114;-76
2021/05/15 08:21:53;;;;;;;11.77;7.43;;;;;;;15.95;nan;100097.00;5010923;28;20033;-77
2021/05/15 08:24:19;;;;;;;11.80;6.80;;;;;;;16.07;nan;100109.91;5028638;28;20021;-77
2021/05/15 08:26:45;;;;;;;13.18;6.45;;;;;;;15.96;nan;100104.09;5010884;28;20079;-77
2021/05/15 08:29:13;;;;;;;9.05;6.63;;;;;;;15.73;nan;100104.16;5028476;28;20576;-77
2021/05/15 08:31:38;;;;;;;10.63;6.95;;;;;;;16.23;nan;100108.03;5028879;28;20480;-77
2021/05/15 08:34:04;;;;;;;12.05;7.18;;;;;;;15.56;nan;100108.88;5043966;28;20026;-76
2021/05/15 08:36:29;;;;;;;9.55;6.90;;;;;;;15.19;nan;100107.81;5024986;28;20033;-76
2021/05/15 08:38:56;;;;;;;11.82;6.65;;;;;;;15.87;nan;100095.19;5043982;28;20029;-76
2021/05/15 08:41:21;;;;;;;10.80;6.80;;;;;;;16.37;nan;100103.59;5028534;28;20545;-77
2021/05/15 08:43:48;;;;;;;12.13;6.53;;;;;;;16.33;nan;100095.00;5028677;28;20124;-77
2021/05/15 08:46:14;;;;;;;14.07;6.95;;;;;;;16.26;nan;100097.63;5028016;28;20034;-77
2021/05/15 08:48:41;;;;;;;10.77;6.95;;;;;;;16.20;nan;100090.25;5009249;28;20041;-77
2021/05/15 08:51:09;;;;;;;13.13;7.72;;;;;;;15.77;nan;100094.63;5010811;28;20068;-77
2021/05/15 08:53:36;;;;;;;9.65;7.55;;;;;;;16.02;nan;100103.34;5028971;28;20029;-76
2021/05/15 08:56:01;;;;;;;11.30;7.05;;;;;;;15.93;nan;100093.63;5028614;28;20040;-77
2021/05/15 08:58:27;;;;;;;12.23;7.15;;;;;;;16.05;nan;100101.09;5015060;28;20383;-77
2021/05/15 09:00:52;;;;;;;11.43;6.32;;;;;;;16.18;nan;100091.47;5012143;28;20038;-76
2021/05/15 09:03:20;;;;;;;9.95;6.20;;;;;;;16.19;nan;100101.25;5025676;28;20065;-76
2021/05/15 09:05:50;;;;;;;9.20;7.00;;;;;;;16.64;nan;100093.91;5032668;28;20029;-76
2021/05/15 09:08:17;;;;;;;7.65;6.10;;;;;;;16.64;nan;100100.19;5032570;28;20512;-77
2021/05/15 09:10:44;;;;;;;9.18;5.90;;;;;;;16.87;nan;100104.66;5032049;28;20029;-77
2021/05/15 09:13:11;;;;;;;12.27;6.55;;;;;;;17.05;nan;100096.03;5031855;28;20033;-76
2021/05/15 09:15:51;;;;;;;11.77;7.07;;;;;;;16.88;nan;100103.63;5032981;28;20034;-76
2021/05/15 09:18:22;;;;;;;9.15;7.32;;;;;;;16.88;nan;100096.31;5032003;28;20072;-77
2021/05/15 09:20:49;;;;;;;7.78;5.72;;;;;;;16.79;nan;100105.59;5014875;28;20111;-76
2021/05/15 09:23:19;;;;;;;13.75;6.18;;;;;;;16.66;nan;100087.25;5032059;28;20477;-76
2021/05/15 09:25:54;;;;;;;10.98;6.80;;;;;;;16.12;nan;100092.22;5015878;28;20033;-79
2021/05/15 09:28:30;;;;;;;11.98;6.93;;;;;;;16.53;nan;100093.38;5018840;28;20045;-80
2021/05/15 09:30:56;;;;;;;8.90;6.10;;;;;;;16.84;nan;100102.31;5025303;28;20132;-79
2021/05/15 09:33:21;;;;;;;15.95;6.72;;;;;;;16.92;nan;100096.75;5038451;28;20045;-79
2021/05/15 09:35:46;;;;;;;12.82;7.07;;;;;;;16.63;nan;100092.25;5019116;28;20442;-79
2021/05/15 09:38:13;;;;;;;18.75;6.65;;;;;;;16.79;nan;100097.44;5035656;28;20119;-79
2021/05/15 09:40:40;;;;;;;10.85;6.72;;;;;;;17.33;nan;100085.25;5015059;28;20040;-77
2021/05/15 09:43:07;;;;;;;10.27;5.93;;;;;;;17.96;nan;100088.03;5032076;28;20112;-77
2021/05/15 09:45:34;;;;;;;12.60;6.68;;;;;;;17.87;nan;100092.78;5030140;28;20037;-76
2021/05/15 09:48:04;;;;;;;7.15;5.68;;;;;;;17.88;nan;100086.31;5047151;28;20025;-76
2021/05/15 09:50:34;;;;;;;8.68;5.60;;;;;;;17.73;nan;100086.41;5031227;28;20397;-76
2021/05/15 09:53:11;;;;;;;11.05;5.72;;;;;;;18.06;nan;100083.06;5031370;28;20028;-76
2021/05/15 09:55:49;;;;;;;8.18;5.78;;;;;;;17.96;nan;100085.31;5031420;28;20033;-76
2021/05/15 09:58:15;;;;;;;10.63;5.22;;;;;;;17.92;nan;100085.72;5031212;28;20045;-76
2021/05/15 10:00:45;;;;;;;10.25;5.78;;;;;;;17.03;nan;100085.38;5029898;28;20032;-76
2021/05/15 10:03:22;;;;;;;10.03;6.03;;;;;;;16.71;nan;100082.09;5050122;28;20106;-79
2021/05/15 10:06:17;;;;;;;10.45;6.30;;;;;;;17.25;nan;100082.66;5034487;28;20041;-79
2021/05/15 10:08:43;;;;;;;13.98;8.45;;;;;;;16.75;nan;100079.84;5017603;28;20044;-77
2021/05/15 10:11:10;;;;;;;14.75;8.45;;;;;;;16.59;nan;100082.78;5030342;28;20064;-77
2021/05/15 10:13:40;;;;;;;14.32;9.35;;;;;;;16.92;nan;100077.75;5029941;28;20119;-79
2021/05/15 10:16:06;;;;;;;12.70;8.70;;;;;;;17.01;nan;100079.28;5048842;28;20493;-78
2021/05/15 10:18:32;;;;;;;16.77;8.77;;;;;;;17.31;nan;100080.00;5033577;28;20040;-78
2021/05/15 10:20:59;;;;;;;32.33;8.88;;;;;;;17.19;nan;100078.84;5009044;28;20075;-78
2021/05/15 10:23:39;;;;;;;11.50;7.80;;;;;;;17.43;nan;100077.59;5035542;28;20029;-79
2021/05/15 10:26:06;;;;;;;12.35;7.78;;;;;;;17.35;nan;100081.28;5033950;28;20033;-77
2021/05/15 10:28:35;;;;;;;10.48;7.30;;;;;;;17.41;nan;100082.38;5030704;28;20022;-78
2021/05/15 10:31:14;;;;;;;10.77;7.50;;;;;;;17.02;nan;100080.13;5031383;28;20424;-78
2021/05/15 10:33:41;;;;;;;9.95;7.22;;;;;;;17.44;nan;100071.94;5030462;28;20040;-78
2021/05/15 10:36:17;;;;;;;8.00;6.40;;;;;;;17.75;nan;100081.56;5029632;28;20033;-78
2021/05/15 10:38:49;;;;;;;8.02;7.15;;;;;;;17.40;nan;100077.97;5023319;28;20104;-78
2021/05/15 10:41:16;;;;;;;;;;;;;;;17.74;nan;100079.06;5014092;28;20029;-78
2021/05/15 10:43:45;;;;;;;9.93;6.80;;;;;;;17.60;nan;100070.84;5031986;28;19917;-78
2021/05/15 10:46:16;;;;;;;9.95;6.32;;;;;;;17.68;nan;100072.53;5022888;28;20048;-78
2021/05/15 10:48:56;;;;;;;9.02;6.65;;;;;;;17.74;nan;100074.47;5028873;28;20021;-78
2021/05/15 10:51:44;;;;;;;8.80;6.70;;;;;;;17.51;nan;100068.44;5030963;28;20037;-78
2021/05/15 10:54:12;;;;;;;10.10;6.03;;;;;;;17.14;nan;100070.41;5031303;28;20095;-78
2021/05/15 10:56:38;;;;;;;10.57;6.97;;;;;;;17.45;nan;100070.94;5030203;28;20063;-78
2021/05/15 10:59:16;;;;;;;12.88;7.32;;;;;;;18.25;nan;100063.28;5029106;28;20559;-78
2021/05/15 11:01:56;;;;;;;11.32;5.97;;;;;;;18.16;nan;100067.22;5034514;28;20128;-78
2021/05/15 11:04:30;;;;;;;8.50;5.70;;;;;;;18.11;nan;100064.25;5027763;28;20039;-78
2021/05/15 11:07:07;;;;;;;8.60;5.97;;;;;;;18.02;nan;100062.75;5027185;28;20029;-78
2021/05/15 11:09:38;;;;;;;7.97;6.05;;;;;;;18.51;nan;100068.00;5035018;28;20321;-78
2021/05/15 11:12:09;;;;;;;7.78;5.53;;;;;;;18.50;nan;100069.03;5033377;28;20025;-79
2021/05/15 11:14:39;;;;;;;6.80;6.10;;;;;;;18.52;nan;100074.31;5033010;28;20034;-79
2021/05/15 11:17:20;;;;;;;8.02;6.28;;;;;;;18.40;nan;100073.19;5029438;28;20036;-78
2021/05/15 11:20:00;;;;;;;11.65;6.07;;;;;;;18.44;nan;100067.13;5029361;28;20033;-79
2021/05/15 11:22:42;;;;;;;8.90;6.43;;;;;;;18.93;nan;100062.50;5029773;28;20040;-79
2021/05/15 11:25:13;;;;;;;6.95;5.57;;;;;;;18.78;nan;100058.03;5027138;28;20087;-79
2021/05/15 11:28:02;;;;;;;7.75;5.55;;;;;;;18.91;nan;100057.22;5031216;28;20033;-79
2021/05/15 11:30:42;;;;;;;8.70;6.68;;;;;;;18.79;nan;100057.03;5031529;28;20034;-79
2021/05/15 11:33:17;;;;;;;8.48;6.45;;;;;;;18.39;nan;100050.56;5027973;28;20057;-79
2021/05/15 11:35:44;;;;;;;7.15;5.78;;;;;;;18.31;nan;100057.03;5031989;28;20485;-79